sensor_id;sensor_type;location;lat;lon;timestamp;P1;durP1;ratioP1;P2;durP2;ratioP2
18883;SDS011;9574;47.282;9.640;2022-10-26T00:00:09;1.17;;;1.07;;
18883;SDS011;9574;47.282;9.640;2022-10-26T00:02:36;6.90;;;1.30;;
18883;SDS011;9574;47.282;9.640;2022-10-26T00:05:03;2.20;;;1.13;;
18883;SDS011;9574;47.282;9.640;2022-10-26T00:07:31;3.17;;;1.00;;
18883;SDS011;9574;47.282;9.640;2022-10-26T00:09:58;4.97;;;1.30;;
18883;SDS011;9574;47.282;9.640;2022-10-26T00:12:25;3.93;;;1.50;;
18883;SDS011;9574;47.282;9.640;2022-10-26T00:14:53;1.00;;;0.90;;
18883;SDS011;9574;47.282;9.640;2022-10-26T00:17:20;2.13;;;0.90;;
18883;SDS011;9574;47.282;9.640;2022-10-26T00:19:47;2.87;;;1.23;;
18883;SDS011;9574;47.282;9.640;2022-10-26T00:22:14;1.00;;;0.90;;
18883;SDS011;9574;47.282;9.640;2022-10-26T00:24:41;1.53;;;1.10;;
18883;SDS011;9574;47.282;9.640;2022-10-26T00:27:08;1.20;;;1.10;;
18883;SDS011;9574;47.282;9.640;2022-10-26T00:29:35;2.33;;;1.17;;
18883;SDS011;9574;47.282;9.640;2022-10-26T00:32:04;5.63;;;1.13;;
18883;SDS011;9574;47.282;9.640;2022-10-26T00:34:31;2.30;;;1.40;;
18883;SDS011;9574;47.282;9.640;2022-10-26T00:36:58;1.73;;;1.10;;
18883;SDS011;9574;47.282;9.640;2022-10-26T00:39:25;2.33;;;1.03;;
18883;SDS011;9574;47.282;9.640;2022-10-26T00:41:52;1.47;;;1.10;;
18883;SDS011;9574;47.282;9.640;2022-10-26T00:44:44;2.57;;;1.10;;
18883;SDS011;9574;47.282;9.640;2022-10-26T00:47:33;1.13;;;1.03;;
18883;SDS011;9574;47.282;9.640;2022-10-26T00:50:05;2.37;;;1.00;;
18883;SDS011;9574;47.282;9.640;2022-10-26T00:52:35;1.00;;;0.90;;
18883;SDS011;9574;47.282;9.640;2022-10-26T00:55:03;2.07;;;1.30;;
18883;SDS011;9574;47.282;9.640;2022-10-26T00:57:31;1.73;;;0.90;;
18883;SDS011;9574;47.282;9.640;2022-10-26T01:00:00;0.90;;;0.90;;
18883;SDS011;9574;47.282;9.640;2022-10-26T01:02:27;2.50;;;0.90;;
18883;SDS011;9574;47.282;9.640;2022-10-26T01:04:55;1.00;;;0.90;;
18883;SDS011;9574;47.282;9.640;2022-10-26T01:07:23;1.33;;;0.90;;
18883;SDS011;9574;47.282;9.640;2022-10-26T01:09:51;1.00;;;0.90;;
18883;SDS011;9574;47.282;9.640;2022-10-26T01:12:20;1.07;;;0.97;;
18883;SDS011;9574;47.282;9.640;2022-10-26T01:14:46;0.70;;;0.70;;
18883;SDS011;9574;47.282;9.640;2022-10-26T01:17:18;1.63;;;0.97;;
18883;SDS011;9574;47.282;9.640;2022-10-26T01:22:47;1.50;;;0.93;;
18883;SDS011;9574;47.282;9.640;2022-10-26T01:25:37;1.77;;;1.00;;
18883;SDS011;9574;47.282;9.640;2022-10-26T01:28:17;2.33;;;0.80;;
18883;SDS011;9574;47.282;9.640;2022-10-26T01:30:58;1.57;;;1.03;;
18883;SDS011;9574;47.282;9.640;2022-10-26T01:33:32;2.93;;;1.10;;
18883;SDS011;9574;47.282;9.640;2022-10-26T01:36:09;2.17;;;1.10;;
18883;SDS011;9574;47.282;9.640;2022-10-26T01:38:42;0.97;;;0.97;;
18883;SDS011;9574;47.282;9.640;2022-10-26T01:41:20;0.73;;;0.73;;
18883;SDS011;9574;47.282;9.640;2022-10-26T01:43:52;1.80;;;1.00;;
18883;SDS011;9574;47.282;9.640;2022-10-26T01:46:23;1.23;;;0.87;;
18883;SDS011;9574;47.282;9.640;2022-10-26T01:48:53;1.23;;;1.10;;
18883;SDS011;9574;47.282;9.640;2022-10-26T01:51:24;1.13;;;0.80;;
18883;SDS011;9574;47.282;9.640;2022-10-26T01:53:52;1.00;;;0.90;;
18883;SDS011;9574;47.282;9.640;2022-10-26T01:56:20;1.97;;;1.20;;
18883;SDS011;9574;47.282;9.640;2022-10-26T02:01:54;1.53;;;0.93;;
18883;SDS011;9574;47.282;9.640;2022-10-26T02:04:57;1.43;;;1.00;;
18883;SDS011;9574;47.282;9.640;2022-10-26T02:07:37;1.27;;;0.90;;
18883;SDS011;9574;47.282;9.640;2022-10-26T02:10:13;1.60;;;1.10;;
18883;SDS011;9574;47.282;9.640;2022-10-26T02:12:50;6.10;;;1.07;;
18883;SDS011;9574;47.282;9.640;2022-10-26T02:15:26;2.77;;;1.10;;
18883;SDS011;9574;47.282;9.640;2022-10-26T02:18:02;1.40;;;0.90;;
18883;SDS011;9574;47.282;9.640;2022-10-26T02:20:35;2.70;;;0.97;;
18883;SDS011;9574;47.282;9.640;2022-10-26T02:23:06;1.43;;;1.03;;
18883;SDS011;9574;47.282;9.640;2022-10-26T02:25:36;2.30;;;0.90;;
18883;SDS011;9574;47.282;9.640;2022-10-26T02:28:10;5.80;;;1.37;;
18883;SDS011;9574;47.282;9.640;2022-10-26T02:30:40;5.40;;;1.23;;
18883;SDS011;9574;47.282;9.640;2022-10-26T02:33:10;1.23;;;1.13;;
18883;SDS011;9574;47.282;9.640;2022-10-26T02:35:40;5.60;;;1.17;;
18883;SDS011;9574;47.282;9.640;2022-10-26T02:38:11;3.20;;;1.30;;
18883;SDS011;9574;47.282;9.640;2022-10-26T02:40:40;1.63;;;1.03;;
18883;SDS011;9574;47.282;9.640;2022-10-26T02:43:09;3.53;;;1.23;;
18883;SDS011;9574;47.282;9.640;2022-10-26T02:45:42;1.30;;;1.10;;
18883;SDS011;9574;47.282;9.640;2022-10-26T02:48:12;1.27;;;0.90;;
18883;SDS011;9574;47.282;9.640;2022-10-26T02:50:42;1.33;;;0.90;;
18883;SDS011;9574;47.282;9.640;2022-10-26T02:53:17;1.50;;;1.00;;
18883;SDS011;9574;47.282;9.640;2022-10-26T02:55:49;2.10;;;0.70;;
18883;SDS011;9574;47.282;9.640;2022-10-26T02:58:18;1.33;;;0.80;;
18883;SDS011;9574;47.282;9.640;2022-10-26T03:00:48;1.00;;;0.90;;
18883;SDS011;9574;47.282;9.640;2022-10-26T03:03:18;0.80;;;0.80;;
18883;SDS011;9574;47.282;9.640;2022-10-26T03:05:45;1.23;;;0.90;;
18883;SDS011;9574;47.282;9.640;2022-10-26T03:08:12;2.90;;;0.73;;
18883;SDS011;9574;47.282;9.640;2022-10-26T03:10:40;1.33;;;0.77;;
18883;SDS011;9574;47.282;9.640;2022-10-26T03:13:08;3.17;;;0.90;;
18883;SDS011;9574;47.282;9.640;2022-10-26T03:15:36;0.97;;;0.80;;
18883;SDS011;9574;47.282;9.640;2022-10-26T03:18:04;0.80;;;0.70;;
18883;SDS011;9574;47.282;9.640;2022-10-26T03:20:32;0.77;;;0.70;;
18883;SDS011;9574;47.282;9.640;2022-10-26T03:23:00;0.80;;;0.80;;
18883;SDS011;9574;47.282;9.640;2022-10-26T03:25:26;1.07;;;0.80;;
18883;SDS011;9574;47.282;9.640;2022-10-26T03:27:57;1.80;;;0.90;;
18883;SDS011;9574;47.282;9.640;2022-10-26T03:30:24;0.70;;;0.70;;
18883;SDS011;9574;47.282;9.640;2022-10-26T03:32:52;1.23;;;1.00;;
18883;SDS011;9574;47.282;9.640;2022-10-26T03:35:19;1.50;;;1.20;;
18883;SDS011;9574;47.282;9.640;2022-10-26T03:37:47;1.30;;;1.20;;
18883;SDS011;9574;47.282;9.640;2022-10-26T03:40:14;1.13;;;1.00;;
18883;SDS011;9574;47.282;9.640;2022-10-26T03:42:41;1.53;;;1.03;;
18883;SDS011;9574;47.282;9.640;2022-10-26T03:45:08;1.60;;;1.43;;
18883;SDS011;9574;47.282;9.640;2022-10-26T03:47:41;1.40;;;1.30;;
18883;SDS011;9574;47.282;9.640;2022-10-26T03:50:09;4.03;;;1.10;;
18883;SDS011;9574;47.282;9.640;2022-10-26T03:52:37;1.13;;;1.03;;
18883;SDS011;9574;47.282;9.640;2022-10-26T03:55:06;8.10;;;1.60;;
18883;SDS011;9574;47.282;9.640;2022-10-26T03:57:34;1.40;;;1.10;;
18883;SDS011;9574;47.282;9.640;2022-10-26T04:00:06;1.07;;;1.00;;
18883;SDS011;9574;47.282;9.640;2022-10-26T04:02:34;3.37;;;1.20;;
18883;SDS011;9574;47.282;9.640;2022-10-26T04:05:01;3.43;;;1.10;;
18883;SDS011;9574;47.282;9.640;2022-10-26T04:07:28;1.13;;;1.00;;
18883;SDS011;9574;47.282;9.640;2022-10-26T04:09:55;3.77;;;1.30;;
18883;SDS011;9574;47.282;9.640;2022-10-26T04:12:23;1.30;;;1.00;;
18883;SDS011;9574;47.282;9.640;2022-10-26T04:14:50;2.90;;;1.17;;
18883;SDS011;9574;47.282;9.640;2022-10-26T04:17:17;1.97;;;1.07;;
18883;SDS011;9574;47.282;9.640;2022-10-26T04:19:44;1.30;;;1.00;;
18883;SDS011;9574;47.282;9.640;2022-10-26T04:22:11;1.13;;;0.80;;
18883;SDS011;9574;47.282;9.640;2022-10-26T04:24:38;0.90;;;0.90;;
18883;SDS011;9574;47.282;9.640;2022-10-26T04:27:05;0.90;;;0.90;;
18883;SDS011;9574;47.282;9.640;2022-10-26T04:29:33;2.53;;;0.63;;
18883;SDS011;9574;47.282;9.640;2022-10-26T04:32:01;4.60;;;1.03;;
18883;SDS011;9574;47.282;9.640;2022-10-26T04:34:28;1.70;;;1.03;;
18883;SDS011;9574;47.282;9.640;2022-10-26T04:36:56;1.10;;;1.00;;
18883;SDS011;9574;47.282;9.640;2022-10-26T04:39:23;1.93;;;1.10;;
18883;SDS011;9574;47.282;9.640;2022-10-26T04:41:52;1.20;;;1.10;;
18883;SDS011;9574;47.282;9.640;2022-10-26T04:44:20;5.90;;;0.93;;
18883;SDS011;9574;47.282;9.640;2022-10-26T04:46:48;1.67;;;0.83;;
18883;SDS011;9574;47.282;9.640;2022-10-26T04:49:16;0.90;;;0.90;;
18883;SDS011;9574;47.282;9.640;2022-10-26T04:51:43;1.77;;;0.93;;
18883;SDS011;9574;47.282;9.640;2022-10-26T04:54:10;2.00;;;1.27;;
18883;SDS011;9574;47.282;9.640;2022-10-26T04:56:37;1.17;;;1.07;;
18883;SDS011;9574;47.282;9.640;2022-10-26T04:59:05;4.53;;;1.00;;
18883;SDS011;9574;47.282;9.640;2022-10-26T05:01:31;1.93;;;1.03;;
18883;SDS011;9574;47.282;9.640;2022-10-26T05:04:00;4.73;;;1.20;;
18883;SDS011;9574;47.282;9.640;2022-10-26T05:06:27;1.70;;;1.10;;
18883;SDS011;9574;47.282;9.640;2022-10-26T05:08:55;1.87;;;1.33;;
18883;SDS011;9574;47.282;9.640;2022-10-26T05:11:22;1.77;;;1.23;;
18883;SDS011;9574;47.282;9.640;2022-10-26T05:13:49;4.33;;;1.40;;
18883;SDS011;9574;47.282;9.640;2022-10-26T05:16:16;2.80;;;1.30;;
18883;SDS011;9574;47.282;9.640;2022-10-26T05:18:43;1.43;;;1.30;;
18883;SDS011;9574;47.282;9.640;2022-10-26T05:21:14;2.27;;;1.20;;
18883;SDS011;9574;47.282;9.640;2022-10-26T05:23:43;1.63;;;1.10;;
18883;SDS011;9574;47.282;9.640;2022-10-26T05:26:13;1.03;;;0.93;;
18883;SDS011;9574;47.282;9.640;2022-10-26T05:28:40;2.80;;;1.10;;
18883;SDS011;9574;47.282;9.640;2022-10-26T05:31:07;1.10;;;1.00;;
18883;SDS011;9574;47.282;9.640;2022-10-26T05:33:34;1.80;;;1.20;;
18883;SDS011;9574;47.282;9.640;2022-10-26T05:36:01;3.73;;;0.90;;
18883;SDS011;9574;47.282;9.640;2022-10-26T05:38:29;1.47;;;0.93;;
18883;SDS011;9574;47.282;9.640;2022-10-26T05:40:56;2.00;;;1.10;;
18883;SDS011;9574;47.282;9.640;2022-10-26T05:43:25;0.93;;;0.83;;
18883;SDS011;9574;47.282;9.640;2022-10-26T05:45:52;1.27;;;1.10;;
18883;SDS011;9574;47.282;9.640;2022-10-26T05:48:19;1.93;;;1.20;;
18883;SDS011;9574;47.282;9.640;2022-10-26T05:50:57;1.83;;;1.33;;
18883;SDS011;9574;47.282;9.640;2022-10-26T05:53:25;2.23;;;1.10;;
18883;SDS011;9574;47.282;9.640;2022-10-26T05:55:54;1.70;;;0.83;;
18883;SDS011;9574;47.282;9.640;2022-10-26T05:58:22;2.53;;;1.83;;
18883;SDS011;9574;47.282;9.640;2022-10-26T06:00:53;1.10;;;1.00;;
18883;SDS011;9574;47.282;9.640;2022-10-26T06:03:34;3.20;;;1.40;;
18883;SDS011;9574;47.282;9.640;2022-10-26T06:06:11;2.90;;;1.10;;
18883;SDS011;9574;47.282;9.640;2022-10-26T06:08:39;1.93;;;1.33;;
18883;SDS011;9574;47.282;9.640;2022-10-26T06:11:09;1.40;;;1.07;;
18883;SDS011;9574;47.282;9.640;2022-10-26T06:13:36;2.63;;;1.20;;
18883;SDS011;9574;47.282;9.640;2022-10-26T06:18:53;2.07;;;1.20;;
18883;SDS011;9574;47.282;9.640;2022-10-26T06:21:36;4.27;;;1.57;;
18883;SDS011;9574;47.282;9.640;2022-10-26T06:24:13;3.70;;;1.33;;
18883;SDS011;9574;47.282;9.640;2022-10-26T06:26:50;1.90;;;1.23;;
18883;SDS011;9574;47.282;9.640;2022-10-26T06:29:27;5.50;;;1.13;;
18883;SDS011;9574;47.282;9.640;2022-10-26T06:32:02;1.70;;;1.47;;
18883;SDS011;9574;47.282;9.640;2022-10-26T06:34:31;1.17;;;1.03;;
18883;SDS011;9574;47.282;9.640;2022-10-26T06:37:00;2.70;;;1.10;;
18883;SDS011;9574;47.282;9.640;2022-10-26T06:39:29;4.10;;;1.00;;
18883;SDS011;9574;47.282;9.640;2022-10-26T06:42:03;1.30;;;1.20;;
18883;SDS011;9574;47.282;9.640;2022-10-26T06:44:30;2.47;;;1.23;;
18883;SDS011;9574;47.282;9.640;2022-10-26T06:46:59;4.70;;;1.30;;
18883;SDS011;9574;47.282;9.640;2022-10-26T06:49:31;4.60;;;1.80;;
18883;SDS011;9574;47.282;9.640;2022-10-26T06:52:02;2.17;;;1.43;;
18883;SDS011;9574;47.282;9.640;2022-10-26T06:54:42;1.20;;;1.10;;
18883;SDS011;9574;47.282;9.640;2022-10-26T06:57:15;3.13;;;1.10;;
18883;SDS011;9574;47.282;9.640;2022-10-26T06:59:44;1.83;;;1.30;;
18883;SDS011;9574;47.282;9.640;2022-10-26T07:02:15;4.50;;;1.53;;
18883;SDS011;9574;47.282;9.640;2022-10-26T07:04:42;2.00;;;1.10;;
18883;SDS011;9574;47.282;9.640;2022-10-26T07:07:10;4.37;;;1.20;;
18883;SDS011;9574;47.282;9.640;2022-10-26T07:09:39;1.53;;;1.33;;
18883;SDS011;9574;47.282;9.640;2022-10-26T07:12:06;1.90;;;1.10;;
18883;SDS011;9574;47.282;9.640;2022-10-26T07:14:34;3.73;;;1.40;;
18883;SDS011;9574;47.282;9.640;2022-10-26T07:17:01;2.60;;;1.80;;
18883;SDS011;9574;47.282;9.640;2022-10-26T07:19:29;5.10;;;1.80;;
18883;SDS011;9574;47.282;9.640;2022-10-26T07:21:56;2.70;;;1.50;;
18883;SDS011;9574;47.282;9.640;2022-10-26T07:24:24;4.03;;;1.60;;
18883;SDS011;9574;47.282;9.640;2022-10-26T07:26:52;7.57;;;1.77;;
18883;SDS011;9574;47.282;9.640;2022-10-26T07:29:20;2.47;;;1.73;;
18883;SDS011;9574;47.282;9.640;2022-10-26T07:31:48;4.43;;;1.97;;
18883;SDS011;9574;47.282;9.640;2022-10-26T07:34:15;2.80;;;1.43;;
18883;SDS011;9574;47.282;9.640;2022-10-26T07:36:42;2.23;;;1.30;;
18883;SDS011;9574;47.282;9.640;2022-10-26T07:39:09;3.13;;;1.97;;
18883;SDS011;9574;47.282;9.640;2022-10-26T07:41:36;3.17;;;2.37;;
18883;SDS011;9574;47.282;9.640;2022-10-26T07:44:03;6.53;;;2.00;;
18883;SDS011;9574;47.282;9.640;2022-10-26T07:46:30;2.33;;;2.07;;
18883;SDS011;9574;47.282;9.640;2022-10-26T07:48:59;4.37;;;2.40;;
18883;SDS011;9574;47.282;9.640;2022-10-26T07:51:26;3.90;;;2.63;;
18883;SDS011;9574;47.282;9.640;2022-10-26T07:53:53;7.60;;;3.30;;
18883;SDS011;9574;47.282;9.640;2022-10-26T07:56:20;6.47;;;3.20;;
18883;SDS011;9574;47.282;9.640;2022-10-26T07:58:47;4.60;;;2.37;;
18883;SDS011;9574;47.282;9.640;2022-10-26T08:01:14;2.80;;;2.10;;
18883;SDS011;9574;47.282;9.640;2022-10-26T08:03:41;4.77;;;1.70;;
18883;SDS011;9574;47.282;9.640;2022-10-26T08:06:09;2.70;;;2.07;;
18883;SDS011;9574;47.282;9.640;2022-10-26T08:08:36;2.80;;;1.80;;
18883;SDS011;9574;47.282;9.640;2022-10-26T08:11:04;3.70;;;2.43;;
18883;SDS011;9574;47.282;9.640;2022-10-26T08:13:31;3.13;;;1.83;;
18883;SDS011;9574;47.282;9.640;2022-10-26T08:16:00;4.80;;;1.83;;
18883;SDS011;9574;47.282;9.640;2022-10-26T08:18:28;2.17;;;1.60;;
18883;SDS011;9574;47.282;9.640;2022-10-26T08:20:59;3.87;;;2.10;;
18883;SDS011;9574;47.282;9.640;2022-10-26T08:23:29;2.70;;;1.80;;
18883;SDS011;9574;47.282;9.640;2022-10-26T08:25:57;7.37;;;2.60;;
18883;SDS011;9574;47.282;9.640;2022-10-26T08:28:24;3.40;;;1.97;;
18883;SDS011;9574;47.282;9.640;2022-10-26T08:30:52;6.93;;;4.00;;
18883;SDS011;9574;47.282;9.640;2022-10-26T08:33:19;3.83;;;2.63;;
18883;SDS011;9574;47.282;9.640;2022-10-26T08:35:46;4.87;;;3.03;;
18883;SDS011;9574;47.282;9.640;2022-10-26T08:38:13;6.30;;;3.33;;
18883;SDS011;9574;47.282;9.640;2022-10-26T08:40:44;4.17;;;2.70;;
18883;SDS011;9574;47.282;9.640;2022-10-26T08:43:12;5.37;;;2.80;;
18883;SDS011;9574;47.282;9.640;2022-10-26T08:45:45;4.30;;;2.73;;
18883;SDS011;9574;47.282;9.640;2022-10-26T08:48:20;6.50;;;2.97;;
18883;SDS011;9574;47.282;9.640;2022-10-26T08:50:51;3.93;;;2.83;;
18883;SDS011;9574;47.282;9.640;2022-10-26T08:53:20;5.17;;;2.67;;
18883;SDS011;9574;47.282;9.640;2022-10-26T08:55:55;4.63;;;2.43;;
18883;SDS011;9574;47.282;9.640;2022-10-26T08:58:26;3.50;;;2.03;;
18883;SDS011;9574;47.282;9.640;2022-10-26T09:00:57;3.67;;;1.60;;
18883;SDS011;9574;47.282;9.640;2022-10-26T09:03:25;3.70;;;2.17;;
18883;SDS011;9574;47.282;9.640;2022-10-26T09:05:55;2.67;;;1.40;;
18883;SDS011;9574;47.282;9.640;2022-10-26T09:08:41;5.77;;;1.70;;
18883;SDS011;9574;47.282;9.640;2022-10-26T09:11:21;2.73;;;1.67;;
18883;SDS011;9574;47.282;9.640;2022-10-26T09:13:59;1.73;;;1.43;;
18883;SDS011;9574;47.282;9.640;2022-10-26T09:16:34;3.80;;;1.77;;
18883;SDS011;9574;47.282;9.640;2022-10-26T09:19:12;2.33;;;1.27;;
18883;SDS011;9574;47.282;9.640;2022-10-26T09:21:49;2.23;;;1.30;;
18883;SDS011;9574;47.282;9.640;2022-10-26T09:24:24;3.90;;;1.60;;
18883;SDS011;9574;47.282;9.640;2022-10-26T09:26:59;5.73;;;2.77;;
18883;SDS011;9574;47.282;9.640;2022-10-26T09:29:34;8.13;;;2.70;;
18883;SDS011;9574;47.282;9.640;2022-10-26T09:32:05;2.00;;;1.30;;
18883;SDS011;9574;47.282;9.640;2022-10-26T09:34:39;3.40;;;1.53;;
18883;SDS011;9574;47.282;9.640;2022-10-26T09:37:12;3.47;;;1.50;;
18883;SDS011;9574;47.282;9.640;2022-10-26T09:39:44;3.30;;;1.77;;
18883;SDS011;9574;47.282;9.640;2022-10-26T09:42:23;1.87;;;1.60;;
18883;SDS011;9574;47.282;9.640;2022-10-26T09:44:56;2.47;;;1.40;;
18883;SDS011;9574;47.282;9.640;2022-10-26T09:47:28;1.20;;;0.93;;
18883;SDS011;9574;47.282;9.640;2022-10-26T09:50:00;1.80;;;1.50;;
18883;SDS011;9574;47.282;9.640;2022-10-26T09:52:32;1.70;;;1.43;;
18883;SDS011;9574;47.282;9.640;2022-10-26T09:54:59;1.93;;;1.30;;
18883;SDS011;9574;47.282;9.640;2022-10-26T09:57:27;1.97;;;1.23;;
18883;SDS011;9574;47.282;9.640;2022-10-26T09:59:55;1.77;;;1.20;;
18883;SDS011;9574;47.282;9.640;2022-10-26T10:02:36;3.60;;;1.55;;
18883;SDS011;9574;47.282;9.640;2022-10-26T10:05:27;4.27;;;1.40;;
18883;SDS011;9574;47.282;9.640;2022-10-26T10:08:15;3.85;;;1.75;;
18883;SDS011;9574;47.282;9.640;2022-10-26T10:10:57;1.70;;;1.10;;
18883;SDS011;9574;47.282;9.640;2022-10-26T10:13:27;2.40;;;1.70;;
18883;SDS011;9574;47.282;9.640;2022-10-26T10:16:00;1.70;;;1.20;;
18883;SDS011;9574;47.282;9.640;2022-10-26T10:18:29;2.87;;;1.20;;
18883;SDS011;9574;47.282;9.640;2022-10-26T10:20:57;5.40;;;2.60;;
18883;SDS011;9574;47.282;9.640;2022-10-26T10:23:29;3.42;;;2.00;;
18883;SDS011;9574;47.282;9.640;2022-10-26T10:26:05;3.78;;;1.27;;
18883;SDS011;9574;47.282;9.640;2022-10-26T10:28:36;3.60;;;1.48;;
18883;SDS011;9574;47.282;9.640;2022-10-26T10:31:05;4.80;;;2.00;;
18883;SDS011;9574;47.282;9.640;2022-10-26T10:33:44;3.72;;;1.50;;
18883;SDS011;9574;47.282;9.640;2022-10-26T10:36:14;1.85;;;0.90;;
18883;SDS011;9574;47.282;9.640;2022-10-26T10:38:43;3.80;;;1.30;;
18883;SDS011;9574;47.282;9.640;2022-10-26T10:41:16;1.05;;;0.90;;
18883;SDS011;9574;47.282;9.640;2022-10-26T10:43:47;1.52;;;0.80;;
18883;SDS011;9574;47.282;9.640;2022-10-26T10:46:17;5.85;;;1.50;;
18883;SDS011;9574;47.282;9.640;2022-10-26T10:48:47;1.20;;;1.10;;
18883;SDS011;9574;47.282;9.640;2022-10-26T10:51:17;4.95;;;1.33;;
18883;SDS011;9574;47.282;9.640;2022-10-26T10:53:47;1.25;;;1.15;;
18883;SDS011;9574;47.282;9.640;2022-10-26T10:56:22;1.48;;;1.00;;
18883;SDS011;9574;47.282;9.640;2022-10-26T10:59:03;2.30;;;1.00;;
18883;SDS011;9574;47.282;9.640;2022-10-26T11:01:47;3.80;;;0.88;;
18883;SDS011;9574;47.282;9.640;2022-10-26T11:04:29;2.58;;;1.20;;
18883;SDS011;9574;47.282;9.640;2022-10-26T11:07:06;1.73;;;1.20;;
18883;SDS011;9574;47.282;9.640;2022-10-26T11:09:38;2.45;;;1.13;;
18883;SDS011;9574;47.282;9.640;2022-10-26T11:12:09;1.30;;;1.13;;
18883;SDS011;9574;47.282;9.640;2022-10-26T11:14:44;3.70;;;1.27;;
18883;SDS011;9574;47.282;9.640;2022-10-26T11:17:15;2.47;;;1.20;;
18883;SDS011;9574;47.282;9.640;2022-10-26T11:19:46;2.10;;;1.05;;
18883;SDS011;9574;47.282;9.640;2022-10-26T11:22:18;1.10;;;0.95;;
18883;SDS011;9574;47.282;9.640;2022-10-26T11:24:48;1.50;;;1.40;;
18883;SDS011;9574;47.282;9.640;2022-10-26T11:27:20;1.23;;;0.93;;
18883;SDS011;9574;47.282;9.640;2022-10-26T11:29:55;1.65;;;1.10;;
18883;SDS011;9574;47.282;9.640;2022-10-26T11:32:29;4.20;;;1.38;;
18883;SDS011;9574;47.282;9.640;2022-10-26T11:35:02;1.60;;;1.20;;
18883;SDS011;9574;47.282;9.640;2022-10-26T11:37:38;0.90;;;0.90;;
18883;SDS011;9574;47.282;9.640;2022-10-26T11:40:15;1.05;;;0.98;;
18883;SDS011;9574;47.282;9.640;2022-10-26T11:42:51;4.22;;;1.00;;
18883;SDS011;9574;47.282;9.640;2022-10-26T11:45:30;2.95;;;1.05;;
18883;SDS011;9574;47.282;9.640;2022-10-26T11:48:01;4.03;;;1.10;;
18883;SDS011;9574;47.282;9.640;2022-10-26T11:50:35;2.42;;;0.85;;
18883;SDS011;9574;47.282;9.640;2022-10-26T11:53:09;3.92;;;1.00;;
18883;SDS011;9574;47.282;9.640;2022-10-26T11:55:39;1.42;;;1.20;;
18883;SDS011;9574;47.282;9.640;2022-10-26T11:58:07;2.03;;;1.40;;
18883;SDS011;9574;47.282;9.640;2022-10-26T12:00:38;1.23;;;1.00;;
18883;SDS011;9574;47.282;9.640;2022-10-26T12:03:12;4.13;;;1.30;;
18883;SDS011;9574;47.282;9.640;2022-10-26T12:05:43;1.83;;;1.10;;
18883;SDS011;9574;47.282;9.640;2022-10-26T12:08:15;2.00;;;1.80;;
18883;SDS011;9574;47.282;9.640;2022-10-26T12:10:48;1.45;;;1.35;;
18883;SDS011;9574;47.282;9.640;2022-10-26T12:13:23;1.52;;;1.27;;
18883;SDS011;9574;47.282;9.640;2022-10-26T12:16:00;1.50;;;1.00;;
18883;SDS011;9574;47.282;9.640;2022-10-26T12:18:34;1.27;;;1.17;;
18883;SDS011;9574;47.282;9.640;2022-10-26T12:21:06;2.35;;;1.17;;
18883;SDS011;9574;47.282;9.640;2022-10-26T12:23:36;2.30;;;1.42;;
18883;SDS011;9574;47.282;9.640;2022-10-26T12:35:31;5.07;;;1.00;;
18883;SDS011;9574;47.282;9.640;2022-10-26T12:38:00;1.35;;;0.85;;
18883;SDS011;9574;47.282;9.640;2022-10-26T12:41:07;1.13;;;0.80;;
18883;SDS011;9574;47.282;9.640;2022-10-26T12:43:44;1.90;;;0.80;;
18883;SDS011;9574;47.282;9.640;2022-10-26T12:52:24;1.60;;;1.13;;
18883;SDS011;9574;47.282;9.640;2022-10-26T12:57:57;1.42;;;0.80;;
18883;SDS011;9574;47.282;9.640;2022-10-26T13:00:43;1.25;;;1.13;;
18883;SDS011;9574;47.282;9.640;2022-10-26T13:03:20;1.40;;;1.00;;
18883;SDS011;9574;47.282;9.640;2022-10-26T13:06:16;1.23;;;0.90;;
18883;SDS011;9574;47.282;9.640;2022-10-26T13:09:04;1.60;;;0.90;;
18883;SDS011;9574;47.282;9.640;2022-10-26T13:11:33;2.28;;;1.30;;
18883;SDS011;9574;47.282;9.640;2022-10-26T13:14:06;2.25;;;0.80;;
18883;SDS011;9574;47.282;9.640;2022-10-26T13:16:47;2.17;;;1.05;;
18883;SDS011;9574;47.282;9.640;2022-10-26T13:19:24;1.67;;;0.93;;
18883;SDS011;9574;47.282;9.640;2022-10-26T13:21:56;1.88;;;0.80;;
18883;SDS011;9574;47.282;9.640;2022-10-26T13:24:26;1.23;;;0.85;;
18883;SDS011;9574;47.282;9.640;2022-10-26T13:30:21;3.80;;;1.23;;
18883;SDS011;9574;47.282;9.640;2022-10-26T13:33:06;2.78;;;1.20;;
18883;SDS011;9574;47.282;9.640;2022-10-26T13:35:40;2.05;;;1.00;;
18883;SDS011;9574;47.282;9.640;2022-10-26T13:38:09;1.38;;;0.95;;
18883;SDS011;9574;47.282;9.640;2022-10-26T13:40:39;1.08;;;0.88;;
18883;SDS011;9574;47.282;9.640;2022-10-26T13:43:06;1.35;;;1.10;;
18883;SDS011;9574;47.282;9.640;2022-10-26T13:45:45;3.60;;;1.00;;
18883;SDS011;9574;47.282;9.640;2022-10-26T13:48:15;2.05;;;0.80;;
18883;SDS011;9574;47.282;9.640;2022-10-26T13:50:46;2.00;;;1.48;;
18883;SDS011;9574;47.282;9.640;2022-10-26T13:53:15;1.17;;;0.82;;
18883;SDS011;9574;47.282;9.640;2022-10-26T13:55:51;3.30;;;1.05;;
18883;SDS011;9574;47.282;9.640;2022-10-26T13:58:21;1.75;;;1.00;;
18883;SDS011;9574;47.282;9.640;2022-10-26T14:01:10;2.35;;;0.98;;
18883;SDS011;9574;47.282;9.640;2022-10-26T14:03:40;1.83;;;0.80;;
18883;SDS011;9574;47.282;9.640;2022-10-26T14:06:10;1.77;;;1.08;;
18883;SDS011;9574;47.282;9.640;2022-10-26T14:08:41;1.77;;;0.80;;
18883;SDS011;9574;47.282;9.640;2022-10-26T14:11:13;1.48;;;1.15;;
18883;SDS011;9574;47.282;9.640;2022-10-26T14:13:43;1.63;;;0.88;;
18883;SDS011;9574;47.282;9.640;2022-10-26T14:16:12;3.15;;;1.10;;
18883;SDS011;9574;47.282;9.640;2022-10-26T14:18:43;1.45;;;0.90;;
18883;SDS011;9574;47.282;9.640;2022-10-26T14:21:12;0.77;;;0.60;;
18883;SDS011;9574;47.282;9.640;2022-10-26T14:23:45;2.35;;;1.20;;
18883;SDS011;9574;47.282;9.640;2022-10-26T14:26:21;3.92;;;1.20;;
18883;SDS011;9574;47.282;9.640;2022-10-26T14:28:50;2.65;;;1.13;;
18883;SDS011;9574;47.282;9.640;2022-10-26T14:31:20;1.90;;;0.93;;
18883;SDS011;9574;47.282;9.640;2022-10-26T14:33:52;2.30;;;0.90;;
18883;SDS011;9574;47.282;9.640;2022-10-26T14:36:22;1.25;;;1.00;;
18883;SDS011;9574;47.282;9.640;2022-10-26T14:38:53;1.30;;;0.98;;
18883;SDS011;9574;47.282;9.640;2022-10-26T14:41:25;1.52;;;0.75;;
18883;SDS011;9574;47.282;9.640;2022-10-26T14:43:54;1.42;;;0.90;;
18883;SDS011;9574;47.282;9.640;2022-10-26T14:46:23;1.45;;;1.20;;
18883;SDS011;9574;47.282;9.640;2022-10-26T14:48:59;2.15;;;1.10;;
18883;SDS011;9574;47.282;9.640;2022-10-26T14:51:27;1.77;;;1.42;;
18883;SDS011;9574;47.282;9.640;2022-10-26T14:53:56;0.82;;;0.65;;
18883;SDS011;9574;47.282;9.640;2022-10-26T14:56:28;2.35;;;0.82;;
18883;SDS011;9574;47.282;9.640;2022-10-26T14:58:57;2.58;;;1.05;;
18883;SDS011;9574;47.282;9.640;2022-10-26T15:01:28;2.03;;;1.08;;
18883;SDS011;9574;47.282;9.640;2022-10-26T15:03:57;2.72;;;0.90;;
18883;SDS011;9574;47.282;9.640;2022-10-26T15:06:33;1.95;;;1.00;;
18883;SDS011;9574;47.282;9.640;2022-10-26T15:12:05;1.67;;;1.02;;
18883;SDS011;9574;47.282;9.640;2022-10-26T15:14:42;2.13;;;0.98;;
18883;SDS011;9574;47.282;9.640;2022-10-26T15:17:12;0.98;;;0.80;;
18883;SDS011;9574;47.282;9.640;2022-10-26T15:19:47;2.58;;;1.00;;
18883;SDS011;9574;47.282;9.640;2022-10-26T15:22:18;1.85;;;1.00;;
18883;SDS011;9574;47.282;9.640;2022-10-26T15:24:49;1.55;;;0.93;;
18883;SDS011;9574;47.282;9.640;2022-10-26T15:27:20;2.38;;;1.13;;
18883;SDS011;9574;47.282;9.640;2022-10-26T15:29:49;5.60;;;1.52;;
18883;SDS011;9574;47.282;9.640;2022-10-26T15:32:24;3.08;;;1.10;;
18883;SDS011;9574;47.282;9.640;2022-10-26T15:37:54;6.22;;;1.23;;
18883;SDS011;9574;47.282;9.640;2022-10-26T15:40:22;1.98;;;1.33;;
18883;SDS011;9574;47.282;9.640;2022-10-26T15:42:52;1.77;;;1.40;;
18883;SDS011;9574;47.282;9.640;2022-10-26T15:45:21;3.63;;;1.90;;
18883;SDS011;9574;47.282;9.640;2022-10-26T15:47:50;2.28;;;1.48;;
18883;SDS011;9574;47.282;9.640;2022-10-26T15:50:18;5.53;;;1.55;;
18883;SDS011;9574;47.282;9.640;2022-10-26T15:52:47;4.10;;;1.67;;
18883;SDS011;9574;47.282;9.640;2022-10-26T15:55:15;3.13;;;1.80;;
18883;SDS011;9574;47.282;9.640;2022-10-26T15:57:42;2.47;;;1.27;;
18883;SDS011;9574;47.282;9.640;2022-10-26T16:00:14;5.18;;;1.65;;